This is the latest recevied weather packets stored in our database for station/object WA9SDJ-13. If no packets are shown the sender has not sent any weather packets the latest 10 day(s).
| Time | Temp. | Humidity | Pressure | Rain* | Wind** | Luminosity | Snow |
|---|---|---|---|---|---|---|---|
| 1778357864 | 23.89° C | 61% | 1006.5 hPa | 0 mm | - | 797 W/m² | - |
| 1778357804 | 23.89° C | 60% | 1006.4 hPa | 0 mm | - | 788 W/m² | - |
| 1778357744 | 23.89° C | 61% | 1006.4 hPa | 0 mm | - | 749 W/m² | - |
| 1778357684 | 23.89° C | 59% | 1006.5 hPa | 0 mm | - | 761 W/m² | - |
| 1778357624 | 23.89° C | 61% | 1006.4 hPa | 0 mm | - | 744 W/m² | - |
| 1778357565 | 23.89° C | 63% | 1006.6 hPa | 0 mm | - | 804 W/m² | - |
| 1778357505 | 23.89° C | 62% | 1006.5 hPa | 0 mm | - | 793 W/m² | - |
| 1778357445 | 23.89° C | 62% | 1006.5 hPa | 0 mm | - | 791 W/m² | - |
| 1778357384 | 23.89° C | 61% | 1006.6 hPa | 0 mm | - | 816 W/m² | - |
| 1778357324 | 23.89° C | 59% | 1006.5 hPa | 0 mm | - | 811 W/m² | - |
| 1778357264 | 23.89° C | 64% | 1006.5 hPa | 0 mm | - | 809 W/m² | - |
| 1778357204 | 23.89° C | 62% | 1006.7 hPa | 0 mm | - | 818 W/m² | - |
| 1778357144 | 23.89° C | 62% | 1006.6 hPa | 0 mm | - | 814 W/m² | - |
| 1778357084 | 23.33° C | 61% | 1006.7 hPa | 0 mm | - | 816 W/m² | - |
| 1778357024 | 23.33° C | 60% | 1006.8 hPa | 0 mm | - | 819 W/m² | - |
| 1778356964 | 23.33° C | 61% | 1006.7 hPa | 0 mm | - | 823 W/m² | - |
| 1778356905 | 23.33° C | 62% | 1006.7 hPa | 0 mm | - | 826 W/m² | - |
| 1778356845 | 23.33° C | 66% | 1006.7 hPa | 0 mm | - | 825 W/m² | - |
| 1778356784 | 23.33° C | 65% | 1006.8 hPa | 0 mm | - | 826 W/m² | - |
| 1778356724 | 23.33° C | 67% | 1006.8 hPa | 0 mm | - | 828 W/m² | - |
| 1778356664 | 23.33° C | 66% | 1006.8 hPa | 0 mm | - | 830 W/m² | - |
| 1778356604 | 23.33° C | 63% | 1006.8 hPa | 0 mm | - | 830 W/m² | - |
| 1778356544 | 22.78° C | 63% | 1006.8 hPa | 0 mm | - | 833 W/m² | - |
| 1778356484 | 22.78° C | 65% | 1006.9 hPa | 0 mm | - | 839 W/m² | - |
| 1778356424 | 22.78° C | 65% | 1007 hPa | 0 mm | - | 839 W/m² | - |
* Rain latest hour (hover to see other rain measurements)
** Current wind speed in m/s (hover to see current wind gust speed)